sensor_id;sensor_type;location;lat;lon;timestamp;P1;durP1;ratioP1;P2;durP2;ratioP2
28968;SDS011;16076;51.194;6.642;2022-08-24T00:00:12;5.40;;;2.20;;
28968;SDS011;16076;51.194;6.642;2022-08-24T00:02:41;3.00;;;1.88;;
28968;SDS011;16076;51.194;6.642;2022-08-24T00:05:07;4.93;;;2.20;;
28968;SDS011;16076;51.194;6.642;2022-08-24T00:07:34;6.47;;;2.70;;
28968;SDS011;16076;51.194;6.642;2022-08-24T00:10:00;2.30;;;2.10;;
28968;SDS011;16076;51.194;6.642;2022-08-24T00:12:28;5.25;;;2.45;;
28968;SDS011;16076;51.194;6.642;2022-08-24T00:14:55;2.55;;;2.13;;
28968;SDS011;16076;51.194;6.642;2022-08-24T00:17:23;4.55;;;2.15;;
28968;SDS011;16076;51.194;6.642;2022-08-24T00:19:49;3.47;;;2.17;;
28968;SDS011;16076;51.194;6.642;2022-08-24T00:22:17;2.60;;;1.98;;
28968;SDS011;16076;51.194;6.642;2022-08-24T00:24:43;5.57;;;2.28;;
28968;SDS011;16076;51.194;6.642;2022-08-24T00:27:09;2.20;;;1.88;;
28968;SDS011;16076;51.194;6.642;2022-08-24T00:29:39;6.18;;;2.15;;
28968;SDS011;16076;51.194;6.642;2022-08-24T00:32:05;2.80;;;2.15;;
28968;SDS011;16076;51.194;6.642;2022-08-24T00:34:31;4.85;;;2.30;;
28968;SDS011;16076;51.194;6.642;2022-08-24T00:36:58;5.93;;;2.40;;
28968;SDS011;16076;51.194;6.642;2022-08-24T00:39:24;2.60;;;1.98;;
28968;SDS011;16076;51.194;6.642;2022-08-24T00:41:50;3.63;;;2.08;;
28968;SDS011;16076;51.194;6.642;2022-08-24T00:44:17;4.13;;;2.00;;
28968;SDS011;16076;51.194;6.642;2022-08-24T00:49:17;2.85;;;2.40;;
28968;SDS011;16076;51.194;6.642;2022-08-24T00:51:52;5.30;;;2.15;;
28968;SDS011;16076;51.194;6.642;2022-08-24T00:54:22;4.85;;;2.22;;
28968;SDS011;16076;51.194;6.642;2022-08-24T00:56:53;4.20;;;2.50;;
28968;SDS011;16076;51.194;6.642;2022-08-24T00:59:26;3.25;;;2.20;;
28968;SDS011;16076;51.194;6.642;2022-08-24T01:02:06;3.80;;;2.30;;
28968;SDS011;16076;51.194;6.642;2022-08-24T01:04:38;4.13;;;2.38;;
28968;SDS011;16076;51.194;6.642;2022-08-24T01:07:09;9.43;;;2.40;;
28968;SDS011;16076;51.194;6.642;2022-08-24T01:09:35;6.15;;;2.53;;
28968;SDS011;16076;51.194;6.642;2022-08-24T01:12:02;6.47;;;2.95;;
28968;SDS011;16076;51.194;6.642;2022-08-24T01:14:28;6.32;;;2.78;;
28968;SDS011;16076;51.194;6.642;2022-08-24T01:16:56;5.40;;;2.28;;
28968;SDS011;16076;51.194;6.642;2022-08-24T01:19:42;4.68;;;2.25;;
28968;SDS011;16076;51.194;6.642;2022-08-24T01:22:15;4.07;;;2.45;;
28968;SDS011;16076;51.194;6.642;2022-08-24T01:24:46;3.70;;;2.45;;
28968;SDS011;16076;51.194;6.642;2022-08-24T01:27:12;4.55;;;2.28;;
28968;SDS011;16076;51.194;6.642;2022-08-24T01:29:39;3.80;;;2.55;;
28968;SDS011;16076;51.194;6.642;2022-08-24T01:32:08;4.25;;;2.55;;
28968;SDS011;16076;51.194;6.642;2022-08-24T01:34:34;4.28;;;2.35;;
28968;SDS011;16076;51.194;6.642;2022-08-24T01:37:00;3.85;;;2.33;;
28968;SDS011;16076;51.194;6.642;2022-08-24T01:39:35;4.28;;;2.50;;
28968;SDS011;16076;51.194;6.642;2022-08-24T01:42:04;6.28;;;2.83;;
28968;SDS011;16076;51.194;6.642;2022-08-24T01:44:31;5.32;;;2.60;;
28968;SDS011;16076;51.194;6.642;2022-08-24T01:46:59;5.10;;;2.70;;
28968;SDS011;16076;51.194;6.642;2022-08-24T01:49:29;4.65;;;2.60;;
28968;SDS011;16076;51.194;6.642;2022-08-24T01:54:22;4.13;;;2.60;;
28968;SDS011;16076;51.194;6.642;2022-08-24T01:56:51;4.22;;;2.80;;
28968;SDS011;16076;51.194;6.642;2022-08-24T01:59:18;2.80;;;2.15;;
28968;SDS011;16076;51.194;6.642;2022-08-24T02:01:48;6.07;;;2.97;;
28968;SDS011;16076;51.194;6.642;2022-08-24T02:04:18;3.75;;;2.60;;
28968;SDS011;16076;51.194;6.642;2022-08-24T02:06:47;5.20;;;2.67;;
28968;SDS011;16076;51.194;6.642;2022-08-24T02:09:13;7.00;;;2.85;;
28968;SDS011;16076;51.194;6.642;2022-08-24T02:11:41;4.20;;;2.60;;
28968;SDS011;16076;51.194;6.642;2022-08-24T02:14:07;4.85;;;2.88;;
28968;SDS011;16076;51.194;6.642;2022-08-24T02:16:33;5.47;;;2.92;;
28968;SDS011;16076;51.194;6.642;2022-08-24T02:18:59;5.70;;;3.05;;
28968;SDS011;16076;51.194;6.642;2022-08-24T02:21:27;5.30;;;3.15;;
28968;SDS011;16076;51.194;6.642;2022-08-24T02:23:54;4.53;;;3.08;;
28968;SDS011;16076;51.194;6.642;2022-08-24T02:26:20;4.13;;;2.90;;
28968;SDS011;16076;51.194;6.642;2022-08-24T02:28:46;5.20;;;2.97;;
28968;SDS011;16076;51.194;6.642;2022-08-24T02:31:14;6.55;;;4.20;;
28968;SDS011;16076;51.194;6.642;2022-08-24T02:33:43;4.28;;;3.00;;
28968;SDS011;16076;51.194;6.642;2022-08-24T02:36:10;5.85;;;3.33;;
28968;SDS011;16076;51.194;6.642;2022-08-24T02:38:39;6.40;;;3.65;;
28968;SDS011;16076;51.194;6.642;2022-08-24T02:41:05;7.43;;;3.20;;
28968;SDS011;16076;51.194;6.642;2022-08-24T02:43:34;3.25;;;2.95;;
28968;SDS011;16076;51.194;6.642;2022-08-24T02:45:59;3.85;;;3.00;;
28968;SDS011;16076;51.194;6.642;2022-08-24T02:48:28;4.90;;;2.65;;
28968;SDS011;16076;51.194;6.642;2022-08-24T02:50:54;5.28;;;3.47;;
28968;SDS011;16076;51.194;6.642;2022-08-24T02:53:19;4.75;;;2.90;;
28968;SDS011;16076;51.194;6.642;2022-08-24T02:55:46;5.43;;;3.08;;
28968;SDS011;16076;51.194;6.642;2022-08-24T02:58:12;6.05;;;3.35;;
28968;SDS011;16076;51.194;6.642;2022-08-24T03:00:41;6.60;;;3.85;;
28968;SDS011;16076;51.194;6.642;2022-08-24T03:03:08;10.88;;;4.50;;
28968;SDS011;16076;51.194;6.642;2022-08-24T03:05:35;5.32;;;3.72;;
28968;SDS011;16076;51.194;6.642;2022-08-24T03:08:01;5.25;;;3.08;;
28968;SDS011;16076;51.194;6.642;2022-08-24T03:10:27;6.22;;;3.25;;
28968;SDS011;16076;51.194;6.642;2022-08-24T03:12:54;6.40;;;3.72;;
28968;SDS011;16076;51.194;6.642;2022-08-24T03:15:20;4.18;;;3.17;;
28968;SDS011;16076;51.194;6.642;2022-08-24T03:17:47;8.25;;;3.65;;
28968;SDS011;16076;51.194;6.642;2022-08-24T03:20:14;4.78;;;3.15;;
28968;SDS011;16076;51.194;6.642;2022-08-24T03:22:42;4.68;;;3.25;;
28968;SDS011;16076;51.194;6.642;2022-08-24T03:25:11;7.90;;;3.30;;
28968;SDS011;16076;51.194;6.642;2022-08-24T03:27:38;5.18;;;3.15;;
28968;SDS011;16076;51.194;6.642;2022-08-24T03:30:07;7.55;;;3.55;;
28968;SDS011;16076;51.194;6.642;2022-08-24T03:32:37;5.93;;;3.03;;
28968;SDS011;16076;51.194;6.642;2022-08-24T03:35:04;6.28;;;3.10;;
28968;SDS011;16076;51.194;6.642;2022-08-24T03:37:35;7.33;;;2.83;;
28968;SDS011;16076;51.194;6.642;2022-08-24T03:40:04;8.07;;;3.22;;
28968;SDS011;16076;51.194;6.642;2022-08-24T03:42:32;6.28;;;3.70;;
28968;SDS011;16076;51.194;6.642;2022-08-24T03:44:57;5.18;;;3.10;;
28968;SDS011;16076;51.194;6.642;2022-08-24T03:47:23;4.88;;;3.38;;
28968;SDS011;16076;51.194;6.642;2022-08-24T03:49:51;6.20;;;3.88;;
28968;SDS011;16076;51.194;6.642;2022-08-24T03:52:17;8.15;;;3.20;;
28968;SDS011;16076;51.194;6.642;2022-08-24T03:54:43;7.30;;;3.28;;
28968;SDS011;16076;51.194;6.642;2022-08-24T03:57:08;6.10;;;3.35;;
28968;SDS011;16076;51.194;6.642;2022-08-24T03:59:34;6.18;;;4.25;;
28968;SDS011;16076;51.194;6.642;2022-08-24T04:02:00;6.47;;;4.05;;
28968;SDS011;16076;51.194;6.642;2022-08-24T04:04:26;5.35;;;3.45;;
28968;SDS011;16076;51.194;6.642;2022-08-24T04:06:53;5.45;;;3.50;;
28968;SDS011;16076;51.194;6.642;2022-08-24T04:09:19;6.65;;;3.90;;
28968;SDS011;16076;51.194;6.642;2022-08-24T04:11:44;6.53;;;3.80;;
28968;SDS011;16076;51.194;6.642;2022-08-24T04:14:10;7.93;;;4.65;;
28968;SDS011;16076;51.194;6.642;2022-08-24T04:16:36;9.68;;;4.00;;
28968;SDS011;16076;51.194;6.642;2022-08-24T04:19:03;6.85;;;4.00;;
28968;SDS011;16076;51.194;6.642;2022-08-24T04:21:30;8.05;;;4.55;;
28968;SDS011;16076;51.194;6.642;2022-08-24T04:23:59;8.98;;;4.72;;
28968;SDS011;16076;51.194;6.642;2022-08-24T04:26:26;9.80;;;4.75;;
28968;SDS011;16076;51.194;6.642;2022-08-24T04:28:53;7.68;;;4.57;;
28968;SDS011;16076;51.194;6.642;2022-08-24T04:31:20;8.15;;;4.15;;
28968;SDS011;16076;51.194;6.642;2022-08-24T04:33:48;7.30;;;4.15;;
28968;SDS011;16076;51.194;6.642;2022-08-24T04:36:16;6.47;;;3.70;;
28968;SDS011;16076;51.194;6.642;2022-08-24T04:38:43;10.88;;;4.22;;
28968;SDS011;16076;51.194;6.642;2022-08-24T04:41:11;10.50;;;4.68;;
28968;SDS011;16076;51.194;6.642;2022-08-24T04:43:38;8.35;;;4.22;;
28968;SDS011;16076;51.194;6.642;2022-08-24T04:46:09;10.13;;;4.30;;
28968;SDS011;16076;51.194;6.642;2022-08-24T04:48:39;8.77;;;4.68;;
28968;SDS011;16076;51.194;6.642;2022-08-24T04:51:06;6.65;;;4.30;;
28968;SDS011;16076;51.194;6.642;2022-08-24T04:53:33;7.03;;;4.18;;
28968;SDS011;16076;51.194;6.642;2022-08-24T04:55:59;5.53;;;4.10;;
28968;SDS011;16076;51.194;6.642;2022-08-24T04:58:26;6.72;;;4.18;;
28968;SDS011;16076;51.194;6.642;2022-08-24T05:00:53;7.32;;;4.13;;
28968;SDS011;16076;51.194;6.642;2022-08-24T05:03:19;7.22;;;4.28;;
28968;SDS011;16076;51.194;6.642;2022-08-24T05:05:49;7.82;;;4.25;;
28968;SDS011;16076;51.194;6.642;2022-08-24T05:08:15;5.18;;;4.00;;
28968;SDS011;16076;51.194;6.642;2022-08-24T05:10:44;8.13;;;3.75;;
28968;SDS011;16076;51.194;6.642;2022-08-24T05:13:12;8.57;;;3.72;;
28968;SDS011;16076;51.194;6.642;2022-08-24T05:15:41;10.27;;;4.65;;
28968;SDS011;16076;51.194;6.642;2022-08-24T05:18:10;4.55;;;3.30;;
28968;SDS011;16076;51.194;6.642;2022-08-24T05:20:41;5.75;;;3.70;;
28968;SDS011;16076;51.194;6.642;2022-08-24T05:23:08;6.33;;;4.57;;
28968;SDS011;16076;51.194;6.642;2022-08-24T05:25:33;4.70;;;3.78;;
28968;SDS011;16076;51.194;6.642;2022-08-24T05:27:59;8.10;;;3.67;;
28968;SDS011;16076;51.194;6.642;2022-08-24T05:30:25;6.30;;;3.65;;
28968;SDS011;16076;51.194;6.642;2022-08-24T05:32:51;5.20;;;3.65;;
28968;SDS011;16076;51.194;6.642;2022-08-24T05:35:19;6.18;;;4.00;;
28968;SDS011;16076;51.194;6.642;2022-08-24T05:37:47;4.47;;;3.20;;
28968;SDS011;16076;51.194;6.642;2022-08-24T05:40:14;5.68;;;3.05;;
28968;SDS011;16076;51.194;6.642;2022-08-24T05:42:42;8.07;;;3.10;;
28968;SDS011;16076;51.194;6.642;2022-08-24T05:45:08;4.60;;;3.58;;
28968;SDS011;16076;51.194;6.642;2022-08-24T05:47:36;18.05;;;5.10;;
28968;SDS011;16076;51.194;6.642;2022-08-24T05:50:03;8.48;;;4.60;;
28968;SDS011;16076;51.194;6.642;2022-08-24T05:52:30;7.10;;;4.53;;
28968;SDS011;16076;51.194;6.642;2022-08-24T05:54:59;7.75;;;4.32;;
28968;SDS011;16076;51.194;6.642;2022-08-24T05:57:29;8.07;;;4.30;;
28968;SDS011;16076;51.194;6.642;2022-08-24T05:59:57;7.30;;;4.03;;
28968;SDS011;16076;51.194;6.642;2022-08-24T06:02:23;4.60;;;3.92;;
28968;SDS011;16076;51.194;6.642;2022-08-24T06:04:48;7.07;;;4.22;;
28968;SDS011;16076;51.194;6.642;2022-08-24T06:07:14;9.32;;;4.18;;
28968;SDS011;16076;51.194;6.642;2022-08-24T06:09:40;8.45;;;4.30;;
28968;SDS011;16076;51.194;6.642;2022-08-24T06:12:07;5.20;;;3.92;;
28968;SDS011;16076;51.194;6.642;2022-08-24T06:14:33;5.90;;;4.32;;
28968;SDS011;16076;51.194;6.642;2022-08-24T06:17:02;8.93;;;4.38;;
28968;SDS011;16076;51.194;6.642;2022-08-24T06:19:30;10.32;;;5.18;;
28968;SDS011;16076;51.194;6.642;2022-08-24T06:21:56;8.65;;;5.20;;
28968;SDS011;16076;51.194;6.642;2022-08-24T06:24:23;6.28;;;4.32;;
28968;SDS011;16076;51.194;6.642;2022-08-24T06:27:08;8.55;;;4.95;;
28968;SDS011;16076;51.194;6.642;2022-08-24T06:32:25;13.50;;;6.10;;
28968;SDS011;16076;51.194;6.642;2022-08-24T06:34:54;14.52;;;5.95;;
28968;SDS011;16076;51.194;6.642;2022-08-24T06:37:21;11.63;;;5.60;;
28968;SDS011;16076;51.194;6.642;2022-08-24T06:39:51;10.90;;;5.65;;
28968;SDS011;16076;51.194;6.642;2022-08-24T06:42:21;9.98;;;4.88;;
28968;SDS011;16076;51.194;6.642;2022-08-24T06:44:49;11.98;;;4.80;;
28968;SDS011;16076;51.194;6.642;2022-08-24T06:47:15;5.90;;;4.82;;
28968;SDS011;16076;51.194;6.642;2022-08-24T06:49:41;10.63;;;4.90;;
28968;SDS011;16076;51.194;6.642;2022-08-24T06:52:07;8.07;;;4.90;;
28968;SDS011;16076;51.194;6.642;2022-08-24T06:54:35;9.35;;;4.90;;
28968;SDS011;16076;51.194;6.642;2022-08-24T06:57:04;10.65;;;4.22;;
28968;SDS011;16076;51.194;6.642;2022-08-24T06:59:31;10.15;;;4.32;;
28968;SDS011;16076;51.194;6.642;2022-08-24T07:01:59;10.50;;;4.47;;
28968;SDS011;16076;51.194;6.642;2022-08-24T07:04:26;6.68;;;3.70;;
28968;SDS011;16076;51.194;6.642;2022-08-24T07:06:53;11.48;;;4.20;;
28968;SDS011;16076;51.194;6.642;2022-08-24T07:09:19;9.48;;;4.53;;
28968;SDS011;16076;51.194;6.642;2022-08-24T07:11:48;7.28;;;4.13;;
28968;SDS011;16076;51.194;6.642;2022-08-24T07:14:15;10.57;;;4.13;;
28968;SDS011;16076;51.194;6.642;2022-08-24T07:16:41;7.60;;;4.20;;
28968;SDS011;16076;51.194;6.642;2022-08-24T07:19:07;7.38;;;4.10;;
28968;SDS011;16076;51.194;6.642;2022-08-24T07:21:33;8.55;;;3.63;;
28968;SDS011;16076;51.194;6.642;2022-08-24T07:24:01;9.88;;;4.22;;
28968;SDS011;16076;51.194;6.642;2022-08-24T07:26:29;5.85;;;3.83;;
28968;SDS011;16076;51.194;6.642;2022-08-24T07:28:56;7.95;;;3.70;;
28968;SDS011;16076;51.194;6.642;2022-08-24T07:31:31;10.07;;;3.85;;
28968;SDS011;16076;51.194;6.642;2022-08-24T07:34:00;7.38;;;3.80;;
28968;SDS011;16076;51.194;6.642;2022-08-24T07:36:28;8.07;;;4.00;;
28968;SDS011;16076;51.194;6.642;2022-08-24T07:38:54;9.75;;;4.18;;
28968;SDS011;16076;51.194;6.642;2022-08-24T07:41:21;7.70;;;3.72;;
28968;SDS011;16076;51.194;6.642;2022-08-24T07:43:50;10.00;;;4.03;;
28968;SDS011;16076;51.194;6.642;2022-08-24T07:46:19;8.45;;;4.43;;
28968;SDS011;16076;51.194;6.642;2022-08-24T07:48:45;8.40;;;4.30;;
28968;SDS011;16076;51.194;6.642;2022-08-24T07:51:12;7.10;;;4.10;;
28968;SDS011;16076;51.194;6.642;2022-08-24T07:53:39;8.00;;;4.05;;
28968;SDS011;16076;51.194;6.642;2022-08-24T07:56:08;9.60;;;4.03;;
28968;SDS011;16076;51.194;6.642;2022-08-24T07:58:35;9.40;;;4.20;;
28968;SDS011;16076;51.194;6.642;2022-08-24T08:01:01;6.38;;;3.65;;
28968;SDS011;16076;51.194;6.642;2022-08-24T08:03:31;11.98;;;4.25;;
28968;SDS011;16076;51.194;6.642;2022-08-24T08:05:59;8.40;;;4.05;;
28968;SDS011;16076;51.194;6.642;2022-08-24T08:08:27;7.53;;;3.58;;
28968;SDS011;16076;51.194;6.642;2022-08-24T08:10:53;8.73;;;3.83;;
28968;SDS011;16076;51.194;6.642;2022-08-24T08:13:20;10.70;;;4.57;;
28968;SDS011;16076;51.194;6.642;2022-08-24T08:15:47;5.70;;;3.38;;
28968;SDS011;16076;51.194;6.642;2022-08-24T08:18:13;7.07;;;3.05;;
28968;SDS011;16076;51.194;6.642;2022-08-24T08:20:40;9.25;;;3.88;;
28968;SDS011;16076;51.194;6.642;2022-08-24T08:23:07;10.48;;;3.70;;
28968;SDS011;16076;51.194;6.642;2022-08-24T08:25:52;10.45;;;4.38;;
28968;SDS011;16076;51.194;6.642;2022-08-24T08:28:26;10.23;;;3.67;;
28968;SDS011;16076;51.194;6.642;2022-08-24T08:30:56;14.40;;;4.35;;
28968;SDS011;16076;51.194;6.642;2022-08-24T08:33:23;10.20;;;4.05;;
28968;SDS011;16076;51.194;6.642;2022-08-24T08:35:52;10.30;;;3.45;;
28968;SDS011;16076;51.194;6.642;2022-08-24T08:38:26;10.52;;;3.85;;
28968;SDS011;16076;51.194;6.642;2022-08-24T08:40:56;6.43;;;2.92;;
28968;SDS011;16076;51.194;6.642;2022-08-24T08:43:41;7.22;;;2.90;;
28968;SDS011;16076;51.194;6.642;2022-08-24T08:51:48;11.38;;;3.00;;
28968;SDS011;16076;51.194;6.642;2022-08-24T09:00:23;4.32;;;2.67;;
28968;SDS011;16076;51.194;6.642;2022-08-24T09:11:33;4.72;;;2.67;;
28968;SDS011;16076;51.194;6.642;2022-08-24T09:17:17;7.60;;;2.60;;
28968;SDS011;16076;51.194;6.642;2022-08-24T09:22:32;6.28;;;2.45;;
28968;SDS011;16076;51.194;6.642;2022-08-24T09:25:05;6.88;;;2.50;;
28968;SDS011;16076;51.194;6.642;2022-08-24T09:30:48;6.57;;;2.30;;
28968;SDS011;16076;51.194;6.642;2022-08-24T09:33:19;4.03;;;2.67;;
28968;SDS011;16076;51.194;6.642;2022-08-24T09:38:22;4.68;;;2.45;;
28968;SDS011;16076;51.194;6.642;2022-08-24T09:46:35;5.72;;;2.00;;
28968;SDS011;16076;51.194;6.642;2022-08-24T09:55:06;7.35;;;2.38;;
28968;SDS011;16076;51.194;6.642;2022-08-24T10:12:24;6.28;;;1.98;;
28968;SDS011;16076;51.194;6.642;2022-08-24T10:20:25;8.70;;;2.65;;
28968;SDS011;16076;51.194;6.642;2022-08-24T10:45:36;6.55;;;2.20;;
28968;SDS011;16076;51.194;6.642;2022-08-24T10:54:02;6.15;;;2.10;;
28968;SDS011;16076;51.194;6.642;2022-08-24T10:56:52;4.65;;;2.40;;
28968;SDS011;16076;51.194;6.642;2022-08-24T10:59:51;10.23;;;2.00;;
28968;SDS011;16076;51.194;6.642;2022-08-24T11:04:54;7.47;;;2.25;;
28968;SDS011;16076;51.194;6.642;2022-08-24T11:07:22;5.53;;;1.90;;
28968;SDS011;16076;51.194;6.642;2022-08-24T11:09:52;4.97;;;1.88;;
28968;SDS011;16076;51.194;6.642;2022-08-24T11:14:54;7.60;;;2.20;;
28968;SDS011;16076;51.194;6.642;2022-08-24T11:17:23;9.50;;;2.22;;
28968;SDS011;16076;51.194;6.642;2022-08-24T11:19:51;7.32;;;1.90;;
28968;SDS011;16076;51.194;6.642;2022-08-24T11:25:20;5.50;;;2.00;;
28968;SDS011;16076;51.194;6.642;2022-08-24T11:27:56;3.70;;;1.60;;
28968;SDS011;16076;51.194;6.642;2022-08-24T11:30:29;3.60;;;1.70;;
28968;SDS011;16076;51.194;6.642;2022-08-24T11:32:56;5.05;;;2.15;;
28968;SDS011;16076;51.194;6.642;2022-08-24T11:35:26;5.20;;;1.90;;
28968;SDS011;16076;51.194;6.642;2022-08-24T11:37:56;3.47;;;1.67;;
28968;SDS011;16076;51.194;6.642;2022-08-24T11:41:32;9.45;;;1.58;;
28968;SDS011;16076;51.194;6.642;2022-08-24T11:49:26;6.22;;;1.73;;
28968;SDS011;16076;51.194;6.642;2022-08-24T11:52:04;3.47;;;1.30;;
28968;SDS011;16076;51.194;6.642;2022-08-24T11:58:16;3.85;;;1.60;;
28968;SDS011;16076;51.194;6.642;2022-08-24T12:00:35;2.35;;;1.50;;
28968;SDS011;16076;51.194;6.642;2022-08-24T12:06:54;3.17;;;1.25;;
28968;SDS011;16076;51.194;6.642;2022-08-24T12:08:54;4.15;;;1.38;;
28968;SDS011;16076;51.194;6.642;2022-08-24T12:14:30;3.33;;;1.60;;
28968;SDS011;16076;51.194;6.642;2022-08-24T12:19:35;3.03;;;1.40;;
28968;SDS011;16076;51.194;6.642;2022-08-24T12:22:05;3.58;;;1.65;;
28968;SDS011;16076;51.194;6.642;2022-08-24T12:29:38;5.57;;;1.60;;
28968;SDS011;16076;51.194;6.642;2022-08-24T12:42:52;2.55;;;1.25;;
28968;SDS011;16076;51.194;6.642;2022-08-24T12:45:39;7.78;;;1.48;;
28968;SDS011;16076;51.194;6.642;2022-08-24T12:59:23;3.53;;;1.52;;
28968;SDS011;16076;51.194;6.642;2022-08-24T13:15:23;7.40;;;1.35;;
28968;SDS011;16076;51.194;6.642;2022-08-24T13:28:52;4.63;;;1.17;;
28968;SDS011;16076;51.194;6.642;2022-08-24T13:31:26;6.20;;;1.50;;
28968;SDS011;16076;51.194;6.642;2022-08-24T13:50:29;1.95;;;1.20;;
28968;SDS011;16076;51.194;6.642;2022-08-24T13:53:04;3.33;;;1.17;;
28968;SDS011;16076;51.194;6.642;2022-08-24T13:55:54;6.75;;;1.13;;
28968;SDS011;16076;51.194;6.642;2022-08-24T13:59:33;2.63;;;1.13;;
28968;SDS011;16076;51.194;6.642;2022-08-24T14:01:49;3.83;;;0.90;;
28968;SDS011;16076;51.194;6.642;2022-08-24T14:06:59;2.28;;;0.70;;
28968;SDS011;16076;51.194;6.642;2022-08-24T14:17:34;6.28;;;1.00;;
28968;SDS011;16076;51.194;6.642;2022-08-24T14:35:27;2.50;;;0.98;;
28968;SDS011;16076;51.194;6.642;2022-08-24T15:01:45;2.25;;;1.30;;
28968;SDS011;16076;51.194;6.642;2022-08-24T15:11:41;8.07;;;1.50;;
28968;SDS011;16076;51.194;6.642;2022-08-24T15:29:29;3.63;;;1.20;;
28968;SDS011;16076;51.194;6.642;2022-08-24T15:32:02;3.88;;;1.33;;
28968;SDS011;16076;51.194;6.642;2022-08-24T15:34:32;4.35;;;1.13;;
28968;SDS011;16076;51.194;6.642;2022-08-24T15:37:03;5.55;;;1.45;;
28968;SDS011;16076;51.194;6.642;2022-08-24T15:39:29;4.80;;;1.30;;
28968;SDS011;16076;51.194;6.642;2022-08-24T15:41:56;1.58;;;1.00;;
28968;SDS011;16076;51.194;6.642;2022-08-24T15:44:23;2.45;;;1.10;;
28968;SDS011;16076;51.194;6.642;2022-08-24T15:50:21;2.70;;;1.23;;
28968;SDS011;16076;51.194;6.642;2022-08-24T15:55:27;3.10;;;1.13;;
28968;SDS011;16076;51.194;6.642;2022-08-24T15:58:34;2.40;;;1.20;;
28968;SDS011;16076;51.194;6.642;2022-08-24T16:03:57;4.15;;;1.13;;
28968;SDS011;16076;51.194;6.642;2022-08-24T16:09:09;3.42;;;1.25;;
28968;SDS011;16076;51.194;6.642;2022-08-24T16:11:36;1.75;;;1.17;;
28968;SDS011;16076;51.194;6.642;2022-08-24T16:16:56;3.13;;;1.40;;
28968;SDS011;16076;51.194;6.642;2022-08-24T16:19:27;5.28;;;1.33;;
28968;SDS011;16076;51.194;6.642;2022-08-24T16:21:58;2.25;;;1.23;;
28968;SDS011;16076;51.194;6.642;2022-08-24T16:24:30;9.15;;;1.08;;
28968;SDS011;16076;51.194;6.642;2022-08-24T16:34:36;3.90;;;1.17;;
28968;SDS011;16076;51.194;6.642;2022-08-24T16:37:02;2.35;;;1.35;;
28968;SDS011;16076;51.194;6.642;2022-08-24T16:39:28;3.08;;;1.05;;
28968;SDS011;16076;51.194;6.642;2022-08-24T16:41:58;2.08;;;0.95;;
28968;SDS011;16076;51.194;6.642;2022-08-24T16:44:40;2.25;;;1.10;;
28968;SDS011;16076;51.194;6.642;2022-08-24T16:47:07;2.42;;;1.00;;
28968;SDS011;16076;51.194;6.642;2022-08-24T16:49:34;4.38;;;1.30;;
28968;SDS011;16076;51.194;6.642;2022-08-24T16:57:53;3.13;;;1.23;;
28968;SDS011;16076;51.194;6.642;2022-08-24T17:00:19;3.33;;;1.25;;
28968;SDS011;16076;51.194;6.642;2022-08-24T17:02:46;4.95;;;1.63;;
28968;SDS011;16076;51.194;6.642;2022-08-24T17:05:13;1.00;;;0.90;;
28968;SDS011;16076;51.194;6.642;2022-08-24T17:07:41;3.20;;;1.27;;
28968;SDS011;16076;51.194;6.642;2022-08-24T17:10:08;1.88;;;1.20;;
28968;SDS011;16076;51.194;6.642;2022-08-24T17:12:37;2.78;;;1.27;;
28968;SDS011;16076;51.194;6.642;2022-08-24T17:15:03;7.72;;;2.03;;
28968;SDS011;16076;51.194;6.642;2022-08-24T17:17:31;2.05;;;1.17;;
28968;SDS011;16076;51.194;6.642;2022-08-24T17:19:57;2.55;;;1.27;;
28968;SDS011;16076;51.194;6.642;2022-08-24T17:22:26;4.60;;;1.48;;
28968;SDS011;16076;51.194;6.642;2022-08-24T17:24:52;2.80;;;1.50;;
28968;SDS011;16076;51.194;6.642;2022-08-24T17:27:19;5.47;;;1.75;;
28968;SDS011;16076;51.194;6.642;2022-08-24T17:29:47;5.03;;;1.55;;
28968;SDS011;16076;51.194;6.642;2022-08-24T17:32:13;2.33;;;1.23;;
28968;SDS011;16076;51.194;6.642;2022-08-24T17:34:38;9.05;;;1.27;;
28968;SDS011;16076;51.194;6.642;2022-08-24T17:37:05;2.28;;;1.00;;
28968;SDS011;16076;51.194;6.642;2022-08-24T17:39:32;5.63;;;1.30;;
28968;SDS011;16076;51.194;6.642;2022-08-24T17:41:58;2.08;;;1.30;;
28968;SDS011;16076;51.194;6.642;2022-08-24T17:44:26;2.25;;;1.08;;
28968;SDS011;16076;51.194;6.642;2022-08-24T17:46:54;1.73;;;0.98;;
28968;SDS011;16076;51.194;6.642;2022-08-24T17:49:22;2.50;;;1.55;;
28968;SDS011;16076;51.194;6.642;2022-08-24T17:51:50;3.17;;;1.27;;
28968;SDS011;16076;51.194;6.642;2022-08-24T17:54:17;5.28;;;1.33;;
28968;SDS011;16076;51.194;6.642;2022-08-24T17:56:43;3.15;;;1.42;;
28968;SDS011;16076;51.194;6.642;2022-08-24T17:59:15;2.63;;;1.20;;
28968;SDS011;16076;51.194;6.642;2022-08-24T18:01:51;2.45;;;1.40;;
28968;SDS011;16076;51.194;6.642;2022-08-24T18:04:19;4.13;;;1.58;;
28968;SDS011;16076;51.194;6.642;2022-08-24T18:06:46;4.93;;;1.45;;
28968;SDS011;16076;51.194;6.642;2022-08-24T18:09:15;3.67;;;1.73;;
28968;SDS011;16076;51.194;6.642;2022-08-24T18:11:43;3.08;;;1.75;;
28968;SDS011;16076;51.194;6.642;2022-08-24T18:14:08;2.95;;;1.33;;
28968;SDS011;16076;51.194;6.642;2022-08-24T18:16:34;2.03;;;1.33;;
28968;SDS011;16076;51.194;6.642;2022-08-24T18:19:00;2.60;;;1.40;;
28968;SDS011;16076;51.194;6.642;2022-08-24T18:21:26;5.22;;;1.70;;
28968;SDS011;16076;51.194;6.642;2022-08-24T18:23:52;3.60;;;1.70;;
28968;SDS011;16076;51.194;6.642;2022-08-24T18:26:20;2.67;;;1.55;;
28968;SDS011;16076;51.194;6.642;2022-08-24T18:28:51;3.33;;;1.40;;
28968;SDS011;16076;51.194;6.642;2022-08-24T18:31:19;4.40;;;1.73;;
28968;SDS011;16076;51.194;6.642;2022-08-24T18:33:46;5.75;;;1.85;;
28968;SDS011;16076;51.194;6.642;2022-08-24T18:36:12;5.13;;;2.00;;
28968;SDS011;16076;51.194;6.642;2022-08-24T18:38:37;5.00;;;2.10;;
28968;SDS011;16076;51.194;6.642;2022-08-24T18:41:04;3.20;;;1.90;;
28968;SDS011;16076;51.194;6.642;2022-08-24T18:43:30;6.05;;;2.20;;
28968;SDS011;16076;51.194;6.642;2022-08-24T18:45:57;4.25;;;2.13;;
28968;SDS011;16076;51.194;6.642;2022-08-24T18:48:23;2.78;;;1.77;;
28968;SDS011;16076;51.194;6.642;2022-08-24T18:50:49;5.88;;;2.05;;
28968;SDS011;16076;51.194;6.642;2022-08-24T18:53:16;6.05;;;1.90;;
28968;SDS011;16076;51.194;6.642;2022-08-24T18:55:42;4.40;;;2.35;;
28968;SDS011;16076;51.194;6.642;2022-08-24T18:58:10;4.95;;;2.15;;
28968;SDS011;16076;51.194;6.642;2022-08-24T19:00:36;3.00;;;1.92;;
28968;SDS011;16076;51.194;6.642;2022-08-24T19:03:03;3.47;;;2.22;;
28968;SDS011;16076;51.194;6.642;2022-08-24T19:05:31;4.80;;;2.03;;
28968;SDS011;16076;51.194;6.642;2022-08-24T19:07:57;5.00;;;2.30;;
28968;SDS011;16076;51.194;6.642;2022-08-24T19:10:24;5.35;;;2.33;;
28968;SDS011;16076;51.194;6.642;2022-08-24T19:12:57;6.60;;;2.47;;
28968;SDS011;16076;51.194;6.642;2022-08-24T19:17:49;6.45;;;2.00;;
28968;SDS011;16076;51.194;6.642;2022-08-24T19:20:15;4.68;;;2.20;;
28968;SDS011;16076;51.194;6.642;2022-08-24T19:22:41;6.47;;;2.45;;
28968;SDS011;16076;51.194;6.642;2022-08-24T19:25:17;6.82;;;2.50;;
28968;SDS011;16076;51.194;6.642;2022-08-24T19:27:48;5.53;;;2.50;;
28968;SDS011;16076;51.194;6.642;2022-08-24T19:30:14;5.95;;;2.50;;
28968;SDS011;16076;51.194;6.642;2022-08-24T19:32:40;2.63;;;2.03;;
28968;SDS011;16076;51.194;6.642;2022-08-24T19:35:09;6.10;;;2.30;;
28968;SDS011;16076;51.194;6.642;2022-08-24T19:37:38;8.20;;;2.63;;
28968;SDS011;16076;51.194;6.642;2022-08-24T19:40:05;6.38;;;2.20;;
28968;SDS011;16076;51.194;6.642;2022-08-24T19:42:31;3.85;;;1.92;;
28968;SDS011;16076;51.194;6.642;2022-08-24T19:44:57;5.68;;;1.90;;
28968;SDS011;16076;51.194;6.642;2022-08-24T19:47:42;5.28;;;2.22;;
28968;SDS011;16076;51.194;6.642;2022-08-24T19:50:09;7.90;;;2.60;;
28968;SDS011;16076;51.194;6.642;2022-08-24T19:52:36;4.50;;;1.90;;